KCGF/CGF METAR and TAF weather

Enter ICAO airport designator
Station Type Date Time Source
KCGF METAR 2024/06/14 03:35 UTC NOAA

KCGF 140335Z AUTO 22004KT 10SM CLR 23/16 A2988 RMK AO2 T02300162


Station Type Date Time Source
KCGF Decoded METAR 2024/06/14 03:35 UTC NOAA

Cleveland / Cuyahoga, OH, United States (KCGF) 41-34N 081-29W
Jun 13, 2024 - 11:35 PM EDT / 2024.06.14 0335 UTC
Wind: from the SW (220 degrees) at 5 MPH (4 KT):0
Visibility: 10 mile(s):0
Sky conditions: clear
Temperature: 73.4 F (23.0 C)
Dew Point: 61.2 F (16.2 C)
Relative Humidity: 65%
Pressure (altimeter): 29.88 in. Hg (1011 hPa)
ob: KCGF 140335Z AUTO 22004KT 10SM CLR 23/16 A2988 RMK AO2 T02300162
cycle: 3

Station Type Date Time Source
KCGF TAF 2016/07/19 12:36 UTC NOAA